Time;durP1;ratioP1;P1;durP2;ratioP2;P2;SDS_P1;SDS_P2;PMS_P1;PMS_P2;Temp;Humidity;BMP_temperature;BMP_pressure;BME280_temperature;BME280_humidity;BME280_pressure;Samples;Min_cycle;Max_cycle;Signal;HPM_P1;HPM_P2
2024/01/30 00:01:48;;;;;;;6.93;4.95;;;8.40;99.90;;;;;;5064780;28;20028;-85
2024/01/30 00:04:14;;;;;;;6.00;4.22;;;8.30;99.90;;;;;;5075100;28;20026;-86
2024/01/30 00:06:43;;;;;;;7.15;4.93;;;8.30;99.90;;;;;;5058675;28;20452;-93
2024/01/30 00:09:10;;;;;;;9.05;5.32;;;8.20;99.90;;;;;;5076854;28;20476;-86
2024/01/30 00:11:36;;;;;;;7.50;5.18;;;8.10;99.90;;;;;;5071838;28;20044;-85
2024/01/30 00:14:03;;;;;;;11.02;5.57;;;8.10;99.90;;;;;;5073867;28;20024;-85
2024/01/30 00:16:28;;;;;;;8.30;4.53;;;8.00;99.90;;;;;;5067697;28;20025;-84
2024/01/30 00:18:54;;;;;;;9.10;5.50;;;8.00;99.90;;;;;;5065039;28;20032;-85
2024/01/30 00:21:20;;;;;;;9.25;4.57;;;7.90;99.90;;;;;;5066031;28;20077;-85
2024/01/30 00:23:46;;;;;;;7.60;4.93;;;7.80;99.90;;;;;;5069741;28;20025;-84
2024/01/30 00:26:12;;;;;;;9.25;5.68;;;7.80;99.90;;;;;;5071622;28;20078;-85
2024/01/30 00:28:38;;;;;;;10.30;5.40;;;7.80;99.90;;;;;;5075995;28;20081;-84
2024/01/30 00:31:04;;;;;;;7.65;5.45;;;7.70;99.90;;;;;;5071771;28;20369;-85
2024/01/30 00:33:33;;;;;;;8.23;5.32;;;7.70;99.90;;;;;;5065417;28;20028;-89
2024/01/30 00:35:58;;;;;;;9.48;5.18;;;7.70;99.90;;;;;;5076380;28;20461;-85
2024/01/30 00:38:24;;;;;;;9.13;4.95;;;7.70;99.90;;;;;;5074310;28;20032;-85
2024/01/30 00:40:49;;;;;;;12.88;5.93;;;7.60;99.90;;;;;;5065852;28;20387;-85
2024/01/30 00:43:16;;;;;;;8.35;5.07;;;7.60;99.90;;;;;;5068022;28;20020;-85
2024/01/30 00:45:43;;;;;;;11.27;6.25;;;7.60;99.90;;;;;;5067152;28;20396;-88
2024/01/30 00:48:09;;;;;;;8.85;5.80;;;7.60;99.90;;;;;;5070931;28;20016;-86
2024/01/30 00:50:34;;;;;;;11.90;5.63;;;7.70;99.90;;;;;;5075832;28;20066;-84
2024/01/30 00:53:00;;;;;;;11.38;6.25;;;7.70;99.90;;;;;;5063403;28;20020;-84
2024/01/30 00:55:26;;;;;;;16.42;7.78;;;7.70;99.90;;;;;;5071758;28;20025;-91
2024/01/30 00:57:51;;;;;;;16.15;6.72;;;7.80;99.90;;;;;;5082135;28;20031;-84
2024/01/30 01:00:17;;;;;;;16.48;6.60;;;7.90;99.90;;;;;;5073917;28;20465;-84
2024/01/30 01:02:43;;;;;;;13.18;6.65;;;7.90;99.90;;;;;;5066910;28;20027;-89
2024/01/30 01:05:09;;;;;;;11.38;6.10;;;8.00;99.90;;;;;;5075816;28;20385;-85
2024/01/30 01:07:35;;;;;;;13.85;7.28;;;8.10;99.90;;;;;;5070700;28;20038;-84
2024/01/30 01:10:02;;;;;;;13.23;6.70;;;8.30;99.90;;;;;;5071867;28;20029;-84
2024/01/30 01:12:28;;;;;;;13.60;7.53;;;8.50;99.90;;;;;;5068486;28;20009;-85
2024/01/30 01:14:53;;;;;;;12.80;6.35;;;8.70;99.90;;;;;;5071959;28;20075;-86
2024/01/30 01:17:19;;;;;;;14.55;6.70;;;8.80;99.90;;;;;;5070001;28;20544;-86
2024/01/30 01:19:44;;;;;;;11.73;6.68;;;8.80;99.90;;;;;;5064943;28;20338;-84
2024/01/30 01:22:10;;;;;;;13.88;5.97;;;8.80;99.90;;;;;;5065897;28;20024;-84
2024/01/30 01:24:36;;;;;;;12.07;5.57;;;8.80;99.90;;;;;;5068988;28;20062;-84
2024/01/30 01:27:02;;;;;;;10.75;6.20;;;8.70;99.90;;;;;;5065916;28;20024;-86
2024/01/30 01:29:31;;;;;;;11.20;5.25;;;8.60;99.90;;;;;;5074777;28;20369;-85
2024/01/30 01:31:57;;;;;;;9.80;5.32;;;8.50;99.90;;;;;;5065016;28;20135;-92
2024/01/30 01:34:28;;;;;;;10.60;5.93;;;8.40;99.90;;;;;;5060331;28;20588;-86
2024/01/30 01:36:57;;;;;;;12.35;6.22;;;8.40;99.90;;;;;;5069701;28;20017;-85
2024/01/30 01:39:23;;;;;;;13.45;6.85;;;8.30;99.90;;;;;;5077152;28;20461;-85
2024/01/30 01:41:49;;;;;;;11.57;6.90;;;8.30;99.90;;;;;;5075358;28;20032;-85
2024/01/30 01:44:14;;;;;;;11.40;5.63;;;8.30;99.90;;;;;;5075252;28;20056;-85
2024/01/30 01:46:40;;;;;;;12.60;6.05;;;8.30;99.90;;;;;;5075492;28;20042;-85
2024/01/30 01:49:07;;;;;;;12.75;6.22;;;8.30;99.90;;;;;;5073055;28;20020;-90
2024/01/30 01:51:35;;;;;;;12.20;5.57;;;8.20;99.90;;;;;;5066958;28;20144;-84
2024/01/30 01:54:05;;;;;;;12.65;5.85;;;8.20;99.90;;;;;;5079278;28;21868;-85
2024/01/30 01:56:33;;;;;;;15.82;7.03;;;8.20;99.90;;;;;;5073693;28;20028;-85
2024/01/30 01:59:04;;;;;;;8.77;5.40;;;8.10;99.90;;;;;;5070457;28;20035;-86
2024/01/30 02:01:32;;;;;;;14.07;5.85;;;8.00;99.90;;;;;;5065731;28;20020;-86
2024/01/30 02:03:59;;;;;;;10.20;5.97;;;7.90;99.90;;;;;;5065209;28;20020;-86
2024/01/30 02:06:26;;;;;;;8.60;5.28;;;7.80;99.90;;;;;;5081401;28;20123;-85
2024/01/30 02:08:52;;;;;;;9.95;5.15;;;7.80;99.90;;;;;;5071687;28;20027;-86
2024/01/30 02:11:18;;;;;;;15.02;6.45;;;7.70;99.90;;;;;;5067039;28;20036;-85
2024/01/30 02:14:30;;;;;;;13.43;5.53;;;7.70;99.90;;;;;;5074035;28;20110;-86
2024/01/30 02:16:56;;;;;;;10.57;5.50;;;7.60;99.90;;;;;;5066294;28;20107;-86
2024/01/30 02:19:22;;;;;;;10.65;5.30;;;7.50;99.90;;;;;;5064471;28;20104;-85
2024/01/30 02:21:48;;;;;;;9.52;5.05;;;7.40;99.90;;;;;;5071167;28;20024;-86
2024/01/30 02:24:13;;;;;;;14.38;5.55;;;7.30;99.90;;;;;;5080629;28;20154;-86
2024/01/30 02:26:39;;;;;;;11.25;5.00;;;7.20;99.90;;;;;;5063774;28;20473;-88
2024/01/30 02:29:04;;;;;;;10.98;5.63;;;7.10;99.90;;;;;;5080290;28;20016;-84
2024/01/30 02:31:30;;;;;;;13.40;5.45;;;7.20;99.90;;;;;;5061973;28;20339;-85
2024/01/30 02:33:55;;;;;;;16.65;6.00;;;7.20;99.90;;;;;;5073180;28;20125;-85
2024/01/30 02:36:21;;;;;;;6.80;5.00;;;7.20;99.90;;;;;;5068562;28;20024;-85
2024/01/30 02:38:46;;;;;;;13.15;5.90;;;7.20;99.90;;;;;;5070890;28;20021;-85
2024/01/30 02:41:12;;;;;;;11.35;6.18;;;7.30;99.90;;;;;;5068658;28;20013;-85
2024/01/30 02:43:38;;;;;;;11.05;6.53;;;7.40;99.90;;;;;;5068452;28;21675;-85
2024/01/30 02:46:04;;;;;;;13.63;6.70;;;7.60;99.90;;;;;;5079488;28;20036;-93
2024/01/30 02:48:29;;;;;;;16.98;6.50;;;7.90;99.90;;;;;;5075485;28;20148;-84
2024/01/30 02:50:55;;;;;;;15.50;5.70;;;8.20;99.90;;;;;;5062539;28;20013;-86
2024/01/30 02:53:21;;;;;;;17.35;6.20;;;8.40;99.90;;;;;;5060869;28;20888;-89
2024/01/30 02:55:46;;;;;;;15.10;6.57;;;8.50;99.90;;;;;;5065820;28;20085;-88
2024/01/30 02:58:12;;;;;;;17.80;6.07;;;8.70;99.90;;;;;;5066298;28;20020;-88
2024/01/30 03:00:37;;;;;;;14.13;6.28;;;8.80;99.90;;;;;;5069205;28;20377;-86
2024/01/30 03:03:06;;;;;;;16.70;5.72;;;8.90;99.90;;;;;;5064935;28;20020;-93
2024/01/30 03:05:32;;;;;;;14.00;6.43;;;8.90;99.90;;;;;;5062059;28;20048;-92
2024/01/30 03:07:57;;;;;;;11.52;5.68;;;8.90;99.90;;;;;;5060241;28;20089;-86
2024/01/30 03:10:23;;;;;;;11.38;5.35;;;8.90;99.90;;;;;;5064150;28;20342;-85
2024/01/30 03:12:48;;;;;;;10.38;5.88;;;8.80;99.90;;;;;;5065287;28;20588;-84
2024/01/30 03:15:14;;;;;;;13.82;6.35;;;8.60;99.90;;;;;;5065973;28;20019;-85
2024/01/30 03:17:41;;;;;;;10.10;5.53;;;8.50;99.90;;;;;;5069267;28;20056;-84
2024/01/30 03:20:07;;;;;;;13.00;6.28;;;8.40;99.90;;;;;;5057779;28;20023;-86
2024/01/30 03:22:32;;;;;;;12.48;5.40;;;8.30;99.90;;;;;;5070274;28;20036;-85
2024/01/30 03:24:58;;;;;;;9.00;5.65;;;8.20;99.90;;;;;;5065308;28;20024;-85
2024/01/30 03:27:24;;;;;;;10.18;5.13;;;8.30;99.90;;;;;;5063049;28;20098;-87
2024/01/30 03:29:49;;;;;;;8.40;5.20;;;8.20;99.90;;;;;;5069680;28;20381;-86
2024/01/30 03:32:15;;;;;;;14.40;6.70;;;8.20;99.90;;;;;;5063942;28;20082;-85
2024/01/30 03:34:40;;;;;;;14.13;5.40;;;8.30;99.90;;;;;;5075582;28;20020;-85
2024/01/30 03:37:06;;;;;;;10.55;5.63;;;8.20;99.90;;;;;;5071125;28;20376;-84
2024/01/30 03:39:31;;;;;;;10.90;5.75;;;8.20;99.90;;;;;;5062663;28;20461;-85
2024/01/30 03:41:57;;;;;;;7.38;4.45;;;8.10;99.90;;;;;;5084035;28;20024;-86
2024/01/30 03:44:22;;;;;;;8.88;4.82;;;8.00;99.90;;;;;;5077949;28;20036;-85
2024/01/30 03:46:48;;;;;;;11.43;5.72;;;8.00;99.90;;;;;;5068184;28;20036;-85
2024/01/30 03:49:14;;;;;;;10.60;4.68;;;7.90;99.90;;;;;;5063194;28;20096;-85
2024/01/30 03:51:39;;;;;;;7.22;4.35;;;7.80;99.90;;;;;;5066245;28;20403;-87
2024/01/30 03:54:05;;;;;;;9.68;5.30;;;7.80;99.90;;;;;;5064837;28;20012;-85
2024/01/30 03:56:30;;;;;;;13.57;6.18;;;7.70;99.90;;;;;;5079543;28;20040;-85
2024/01/30 03:58:56;;;;;;;8.75;5.22;;;7.70;99.90;;;;;;5058975;28;20350;-86
2024/01/30 04:01:22;;;;;;;9.15;5.00;;;7.70;99.90;;;;;;5062571;28;20302;-86
2024/01/30 04:03:47;;;;;;;7.90;5.43;;;7.70;99.90;;;;;;5069127;28;20105;-86
2024/01/30 04:06:13;;;;;;;10.60;5.35;;;7.60;99.90;;;;;;5071552;28;20483;-85
2024/01/30 04:08:39;;;;;;;12.30;5.63;;;7.60;99.90;;;;;;5072245;28;20020;-85
2024/01/30 04:11:05;;;;;;;8.68;5.45;;;7.60;99.90;;;;;;5055010;28;20017;-85
2024/01/30 04:13:31;;;;;;;9.57;5.95;;;7.50;99.90;;;;;;5059432;28;20025;-85
2024/01/30 04:16:03;;;;;;;10.60;6.13;;;7.40;99.90;;;;;;5063599;28;20032;-86
2024/01/30 04:18:29;;;;;;;10.60;6.03;;;7.40;99.90;;;;;;5056904;28;20059;-86
2024/01/30 04:20:55;;;;;;;7.32;4.68;;;7.30;99.90;;;;;;5067894;28;20025;-87
2024/01/30 04:23:22;;;;;;;14.98;5.95;;;7.30;99.90;;;;;;5067617;28;20346;-91
2024/01/30 04:25:47;;;;;;;15.43;7.22;;;7.20;99.90;;;;;;5039039;28;20035;-86
2024/01/30 04:28:13;;;;;;;14.57;6.80;;;7.20;99.90;;;;;;5057707;28;20013;-86
2024/01/30 04:30:39;;;;;;;9.98;5.97;;;7.20;99.90;;;;;;5052887;28;20035;-87
2024/01/30 04:33:05;;;;;;;9.23;5.85;;;7.10;99.90;;;;;;5039285;28;20266;-86
2024/01/30 04:35:30;;;;;;;12.25;6.45;;;7.10;99.90;;;;;;5056195;28;20295;-88
2024/01/30 04:37:56;;;;;;;12.88;7.00;;;7.00;99.90;;;;;;5060186;28;20507;-86
2024/01/30 04:40:22;;;;;;;9.48;5.38;;;7.00;99.90;;;;;;5050850;28;20107;-86
2024/01/30 04:42:47;;;;;;;11.07;5.90;;;6.90;99.90;;;;;;5056549;28;20168;-85
2024/01/30 04:45:13;;;;;;;13.65;6.38;;;6.80;99.90;;;;;;5058992;28;20044;-86
2024/01/30 04:47:38;;;;;;;16.60;6.60;;;6.70;99.90;;;;;;5064652;28;20059;-86
2024/01/30 04:50:07;;;;;;;9.73;4.95;;;6.60;99.90;;;;;;5048816;28;20025;-87
2024/01/30 04:52:32;;;;;;;13.60;6.60;;;6.50;99.90;;;;;;5063822;28;20344;-85
2024/01/30 04:54:58;;;;;;;11.55;6.15;;;6.50;99.90;;;;;;5068846;28;20453;-85
2024/01/30 04:57:23;;;;;;;14.60;6.35;;;6.50;99.90;;;;;;5060038;28;20024;-85
2024/01/30 04:59:52;;;;;;;16.38;6.78;;;6.50;99.90;;;;;;5060560;28;20036;-86
2024/01/30 05:02:18;;;;;;;11.43;5.80;;;6.50;99.90;;;;;;5061899;28;20524;-85
2024/01/30 05:04:43;;;;;;;12.98;6.07;;;6.40;99.90;;;;;;5057444;28;20111;-86
2024/01/30 05:07:09;;;;;;;15.13;6.47;;;6.40;99.90;;;;;;5058678;28;20031;-84
2024/01/30 05:09:35;;;;;;;10.85;5.50;;;6.40;99.90;;;;;;5060878;28;20386;-86
2024/01/30 05:12:00;;;;;;;8.30;4.57;;;6.40;99.90;;;;;;5061227;28;20016;-85
2024/01/30 05:14:26;;;;;;;8.95;4.70;;;6.30;99.90;;;;;;5053189;28;20422;-87
2024/01/30 05:16:52;;;;;;;8.07;5.50;;;6.40;99.90;;;;;;5067380;28;20473;-86
2024/01/30 05:19:17;;;;;;;11.95;5.57;;;6.40;99.90;;;;;;5066108;28;20016;-85
2024/01/30 05:21:43;;;;;;;9.82;5.05;;;6.40;99.90;;;;;;5064935;28;20020;-86
2024/01/30 05:24:10;;;;;;;15.00;6.18;;;6.40;99.90;;;;;;5062992;28;20449;-86
2024/01/30 05:26:38;;;;;;;8.77;5.88;;;6.40;99.90;;;;;;5067716;28;20139;-89
2024/01/30 05:29:06;;;;;;;14.70;5.70;;;6.40;99.90;;;;;;5059743;28;20042;-85
2024/01/30 05:31:32;;;;;;;9.80;5.45;;;6.40;99.90;;;;;;5061444;28;20016;-85
2024/01/30 05:33:58;;;;;;;11.27;5.53;;;6.40;99.90;;;;;;5064274;28;20411;-85
2024/01/30 05:36:23;;;;;;;10.65;5.47;;;6.40;99.90;;;;;;5062116;28;20065;-86
2024/01/30 05:38:49;;;;;;;12.35;5.38;;;6.40;99.90;;;;;;5052400;28;20108;-86
2024/01/30 05:41:15;;;;;;;16.98;6.90;;;6.40;99.90;;;;;;5057131;28;20025;-85
2024/01/30 05:43:41;;;;;;;9.15;5.15;;;6.30;99.90;;;;;;5050508;28;20047;-89
2024/01/30 05:46:07;;;;;;;8.52;4.60;;;6.30;99.90;;;;;;5060378;28;20041;-86
2024/01/30 05:48:35;;;;;;;7.95;4.68;;;6.20;99.90;;;;;;5038768;28;20054;-86
2024/01/30 05:51:03;;;;;;;10.18;5.45;;;6.10;99.90;;;;;;5066839;28;20020;-89
2024/01/30 05:53:29;;;;;;;9.88;5.13;;;6.10;99.90;;;;;;5060616;28;20028;-85
2024/01/30 05:55:54;;;;;;;11.20;5.45;;;6.00;99.90;;;;;;5060637;28;20101;-86
2024/01/30 05:58:21;;;;;;;11.88;5.43;;;6.00;99.90;;;;;;5068606;28;20080;-86
2024/01/30 06:00:47;;;;;;;10.82;5.93;;;5.90;99.90;;;;;;5066744;28;20016;-85
2024/01/30 06:03:12;;;;;;;8.80;4.95;;;5.80;99.90;;;;;;5053572;28;20020;-87
2024/01/30 06:05:38;;;;;;;9.55;5.60;;;5.80;99.90;;;;;;5060172;28;20044;-85
2024/01/30 06:08:04;;;;;;;14.88;6.20;;;5.80;99.90;;;;;;5064076;28;20024;-86
2024/01/30 06:10:29;;;;;;;12.23;5.95;;;5.90;99.90;;;;;;5063593;28;20024;-87
2024/01/30 06:12:55;;;;;;;13.45;6.63;;;5.90;99.90;;;;;;5058955;28;20060;-87
2024/01/30 06:15:20;;;;;;;12.88;6.47;;;5.90;99.90;;;;;;5059993;28;20020;-85
2024/01/30 06:17:46;;;;;;;13.32;6.57;;;6.00;99.90;;;;;;5051375;28;20794;-86
2024/01/30 06:20:11;;;;;;;8.68;5.18;;;6.00;99.90;;;;;;5054442;28;20169;-86
2024/01/30 06:22:37;;;;;;;14.75;5.80;;;6.00;99.90;;;;;;5057593;28;20032;-85
2024/01/30 06:25:03;;;;;;;10.93;5.88;;;6.10;99.90;;;;;;5064329;28;20024;-88
2024/01/30 06:27:28;;;;;;;9.90;6.72;;;6.00;99.90;;;;;;5063931;28;20026;-87
2024/01/30 06:29:55;;;;;;;15.25;6.65;;;6.10;99.90;;;;;;5056806;28;20044;-87
2024/01/30 06:32:20;;;;;;;12.35;6.68;;;6.10;99.90;;;;;;5059092;28;20020;-88
2024/01/30 06:34:46;;;;;;;10.18;5.40;;;6.10;99.90;;;;;;5053261;28;20651;-85
2024/01/30 06:37:12;;;;;;;10.20;5.57;;;6.00;99.90;;;;;;5062499;28;20021;-88
2024/01/30 06:39:37;;;;;;;11.90;6.28;;;6.00;99.90;;;;;;5049293;28;21357;-86
2024/01/30 06:42:03;;;;;;;12.50;6.15;;;5.90;99.90;;;;;;5063483;28;20048;-85
2024/01/30 06:44:28;;;;;;;15.00;6.35;;;5.90;99.90;;;;;;5060648;28;20068;-86
2024/01/30 06:46:54;;;;;;;14.77;6.88;;;6.00;99.90;;;;;;5056378;28;20036;-85
2024/01/30 06:49:21;;;;;;;11.63;6.45;;;6.00;99.90;;;;;;5056027;28;20116;-85
2024/01/30 06:51:47;;;;;;;14.48;7.30;;;5.90;99.90;;;;;;5066177;28;20475;-85
2024/01/30 06:54:13;;;;;;;21.90;7.03;;;5.90;99.90;;;;;;5076137;28;20016;-86
2024/01/30 06:56:39;;;;;;;13.43;7.20;;;6.00;99.90;;;;;;5069513;28;20021;-86
2024/01/30 06:59:05;;;;;;;22.95;8.85;;;6.00;99.90;;;;;;5055327;28;20033;-86
2024/01/30 07:01:30;;;;;;;37.38;12.90;;;6.00;99.90;;;;;;5063649;28;20139;-85
2024/01/30 07:03:57;;;;;;;28.75;12.13;;;5.90;99.90;;;;;;5060395;28;20461;-85
2024/01/30 07:06:22;;;;;;;20.33;10.07;;;6.00;99.90;;;;;;5049557;28;20099;-85
2024/01/30 07:08:49;;;;;;;30.38;13.00;;;6.00;99.90;;;;;;5070894;28;20376;-86
2024/01/30 07:11:23;;;;;;;37.55;14.80;;;6.00;99.90;;;;;;5056504;28;20027;-86
2024/01/30 07:13:51;;;;;;;20.27;10.52;;;6.00;99.90;;;;;;5054590;28;20050;-87
2024/01/30 07:16:17;;;;;;;25.50;11.13;;;6.10;99.90;;;;;;5061908;28;20016;-85
2024/01/30 07:18:43;;;;;;;22.00;8.65;;;6.10;99.90;;;;;;5072562;28;20478;-86
2024/01/30 07:21:09;;;;;;;17.17;9.27;;;6.20;99.90;;;;;;5058902;28;20032;-85
2024/01/30 07:23:35;;;;;;;16.65;7.82;;;6.20;99.90;;;;;;5059224;28;20368;-86
2024/01/30 07:26:03;;;;;;;16.33;8.05;;;6.30;99.90;;;;;;5067776;28;20066;-87
2024/01/30 07:28:29;;;;;;;23.83;8.02;;;6.30;99.90;;;;;;5060143;28;20021;-85
2024/01/30 07:30:54;;;;;;;15.35;7.10;;;6.30;99.90;;;;;;5072420;28;20036;-86
2024/01/30 07:33:20;;;;;;;12.75;6.18;;;6.30;99.90;;;;;;5056625;28;20029;-85
2024/01/30 07:35:46;;;;;;;11.02;6.13;;;6.40;99.90;;;;;;5053499;28;20487;-85
2024/01/30 07:38:12;;;;;;;9.20;6.05;;;6.40;99.90;;;;;;5064507;28;20051;-87
2024/01/30 07:40:38;;;;;;;13.52;6.45;;;6.40;99.90;;;;;;5057480;28;20028;-85
2024/01/30 07:43:03;;;;;;;10.00;5.93;;;6.40;99.90;;;;;;5060143;28;20422;-85
2024/01/30 07:45:32;;;;;;;17.05;7.82;;;6.40;99.90;;;;;;5055378;28;20048;-86
2024/01/30 07:47:59;;;;;;;12.73;7.40;;;6.50;99.90;;;;;;5049430;28;20025;-85
2024/01/30 07:50:25;;;;;;;12.57;6.90;;;6.40;99.90;;;;;;5064078;28;20056;-85
2024/01/30 07:52:54;;;;;;;11.15;6.93;;;6.40;99.90;;;;;;5039321;28;20097;-86
2024/01/30 07:55:21;;;;;;;11.68;6.53;;;6.40;99.90;;;;;;5056058;28;20025;-87
2024/01/30 07:57:47;;;;;;;11.15;6.60;;;6.50;99.90;;;;;;5059031;28;20021;-85
2024/01/30 08:00:13;;;;;;;16.85;7.18;;;6.60;99.90;;;;;;5075620;28;20034;-85
2024/01/30 08:02:39;;;;;;;13.52;7.25;;;6.60;99.90;;;;;;5050475;28;20036;-85
2024/01/30 08:05:05;;;;;;;16.50;7.72;;;6.60;99.90;;;;;;5056505;28;20408;-85
2024/01/30 08:07:30;;;;;;;14.63;6.75;;;6.70;99.90;;;;;;5057480;28;20070;-85
2024/01/30 08:09:56;;;;;;;13.98;6.45;;;6.80;99.90;;;;;;5054012;28;20694;-89
2024/01/30 08:12:22;;;;;;;10.35;5.40;;;6.80;99.90;;;;;;5068618;28;20032;-87
2024/01/30 08:14:47;;;;;;;11.63;5.47;;;6.90;99.90;;;;;;5055980;28;20036;-85
2024/01/30 08:17:13;;;;;;;11.00;6.00;;;6.90;99.90;;;;;;5051103;28;20025;-85
2024/01/30 08:19:38;;;;;;;16.85;5.93;;;7.00;99.90;;;;;;5060602;28;20055;-85
2024/01/30 08:22:04;;;;;;;15.57;7.40;;;7.00;99.90;;;;;;5055590;28;20040;-86
2024/01/30 08:24:29;;;;;;;15.82;7.20;;;7.10;99.90;;;;;;5068530;28;20027;-85
2024/01/30 08:26:55;;;;;;;13.75;6.93;;;7.20;99.90;;;;;;5062690;28;20485;-86
2024/01/30 08:29:20;;;;;;;15.98;7.07;;;7.20;99.90;;;;;;5058866;28;20060;-86
2024/01/30 08:31:46;;;;;;;12.30;6.15;;;7.30;99.90;;;;;;5062124;28;20432;-85
2024/01/30 08:34:12;;;;;;;16.92;8.07;;;7.30;99.90;;;;;;5046404;28;20028;-86
2024/01/30 08:36:37;;;;;;;15.65;7.13;;;7.40;99.90;;;;;;5054687;28;20079;-86
2024/01/30 08:39:03;;;;;;;17.25;7.32;;;7.40;99.90;;;;;;5047568;28;20100;-85
2024/01/30 08:41:28;;;;;;;14.32;7.72;;;7.50;99.90;;;;;;5057263;28;20103;-85
2024/01/30 08:43:54;;;;;;;21.15;7.80;;;7.60;99.90;;;;;;5058167;28;20095;-86
2024/01/30 08:46:19;;;;;;;11.43;6.28;;;7.60;99.90;;;;;;5057322;28;20041;-86
2024/01/30 08:48:47;;;;;;;15.05;6.05;;;7.70;99.90;;;;;;5054980;28;20124;-86
2024/01/30 08:51:13;;;;;;;11.35;6.05;;;7.90;99.90;;;;;;5054910;28;20108;-86
2024/01/30 08:53:39;;;;;;;10.07;5.80;;;8.00;99.90;;;;;;5059690;28;20119;-85
2024/01/30 08:56:07;;;;;;;12.10;6.43;;;8.10;99.90;;;;;;5052337;28;20469;-86
2024/01/30 08:58:33;;;;;;;10.00;5.57;;;8.20;99.90;;;;;;5051325;28;20063;-85
2024/01/30 09:00:59;;;;;;;9.68;5.38;;;8.30;99.90;;;;;;5051062;28;20037;-85
2024/01/30 09:03:24;;;;;;;15.25;6.10;;;8.40;99.90;;;;;;5053732;28;20040;-85
2024/01/30 09:05:50;;;;;;;15.15;6.78;;;8.50;99.90;;;;;;5048662;28;20041;-87
2024/01/30 09:08:17;;;;;;;13.32;5.13;;;8.50;99.90;;;;;;5059609;28;20700;-85
2024/01/30 09:10:44;;;;;;;12.70;5.70;;;8.60;99.90;;;;;;5064493;28;20024;-86
2024/01/30 09:13:09;;;;;;;17.05;6.38;;;8.70;99.90;;;;;;5056237;28;20025;-85
2024/01/30 09:15:38;;;;;;;13.88;6.05;;;8.70;99.90;;;;;;5075838;28;20032;-87
2024/01/30 09:18:04;;;;;;;16.35;6.38;;;8.80;99.90;;;;;;5056096;28;21592;-85
2024/01/30 09:20:29;;;;;;;10.40;6.47;;;8.90;99.90;;;;;;5058682;28;20031;-85
2024/01/30 09:22:55;;;;;;;9.43;5.88;;;9.10;99.90;;;;;;5053422;28;20025;-86
2024/01/30 09:25:21;;;;;;;16.48;6.18;;;9.30;99.90;;;;;;5059796;28;20432;-89
2024/01/30 09:27:47;;;;;;;10.57;5.65;;;9.50;99.90;;;;;;5069193;28;20488;-88
2024/01/30 09:30:13;;;;;;;11.32;5.70;;;9.50;99.90;;;;;;5069767;28;20105;-85
2024/01/30 09:32:41;;;;;;;11.60;5.72;;;9.70;99.90;;;;;;5067577;28;20155;-90
2024/01/30 09:35:07;;;;;;;12.50;6.20;;;9.70;99.90;;;;;;5077079;28;20064;-84
2024/01/30 09:37:33;;;;;;;16.25;5.60;;;9.90;99.90;;;;;;5081365;28;20031;-85
2024/01/30 09:39:58;;;;;;;12.15;5.18;;;9.90;99.90;;;;;;5063505;28;20032;-87
2024/01/30 09:42:35;;;;;;;19.63;6.72;;;9.90;99.90;;;;;;5064605;28;20478;-86
2024/01/30 09:45:03;;;;;;;15.63;5.72;;;10.00;99.90;;;;;;5072697;28;20036;-91
2024/01/30 09:47:37;;;;;;;11.77;5.70;;;10.00;99.90;;;;;;5074727;28;20377;-87
2024/01/30 09:50:05;;;;;;;13.30;6.10;;;10.00;99.90;;;;;;5064930;28;20058;-87
2024/01/30 09:52:31;;;;;;;8.70;5.55;;;10.10;99.90;;;;;;5084036;28;20385;-82
2024/01/30 09:55:00;;;;;;;12.80;6.07;;;10.10;99.90;;;;;;5068642;28;20115;-84
2024/01/30 09:57:26;;;;;;;13.13;5.68;;;10.20;99.90;;;;;;5075276;28;20051;-86
2024/01/30 09:59:53;;;;;;;19.23;6.50;;;10.20;99.90;;;;;;5076090;28;20048;-86
2024/01/30 10:02:20;;;;;;;10.55;5.43;;;10.20;99.90;;;;;;5068657;28;20058;-87
2024/01/30 10:04:49;;;;;;;10.95;5.95;;;10.30;99.90;;;;;;5069738;28;20037;-89
2024/01/30 10:07:15;;;;;;;22.25;5.50;;;10.40;99.90;;;;;;5072890;28;20427;-88
2024/01/30 10:09:40;;;;;;;17.08;5.88;;;10.40;99.90;;;;;;5077781;28;20111;-90
2024/01/30 10:12:07;;;;;;;10.32;5.15;;;10.40;99.90;;;;;;5064326;28;20085;-88
2024/01/30 10:14:33;;;;;;;11.95;5.50;;;10.50;99.90;;;;;;5078252;28;20154;-84
2024/01/30 10:16:59;;;;;;;12.70;5.10;;;10.40;99.90;;;;;;5052691;28;20036;-83
2024/01/30 10:19:26;;;;;;;13.75;5.55;;;10.50;99.90;;;;;;5061797;28;20032;-85
2024/01/30 10:21:52;;;;;;;8.98;4.75;;;10.40;99.90;;;;;;5074584;28;20114;-86
2024/01/30 10:24:17;;;;;;;16.17;4.68;;;10.40;99.90;;;;;;5069841;28;20046;-83
2024/01/30 10:26:44;;;;;;;16.25;5.18;;;10.30;99.90;;;;;;5075107;28;20401;-84
2024/01/30 10:29:09;;;;;;;11.25;4.60;;;10.20;99.90;;;;;;5071719;28;20024;-83
2024/01/30 10:31:35;;;;;;;11.00;5.10;;;10.20;99.90;;;;;;5069241;28;20029;-82
2024/01/30 10:34:01;;;;;;;16.75;5.55;;;10.20;99.90;;;;;;5070906;28;20028;-84
2024/01/30 10:36:29;;;;;;;8.55;4.57;;;10.10;99.90;;;;;;5057972;28;20025;-84
2024/01/30 10:38:59;;;;;;;13.88;4.57;;;10.10;99.90;;;;;;5060363;28;20064;-85
2024/01/30 10:41:26;;;;;;;12.95;4.70;;;10.10;99.90;;;;;;5075548;28;20028;-83
2024/01/30 10:44:13;;;;;;;10.57;4.85;;;10.20;99.90;;;;;;5071482;28;20048;-83
2024/01/30 10:46:39;;;;;;;9.48;4.68;;;10.20;99.90;;;;;;5076304;28;20048;-84
2024/01/30 10:49:06;;;;;;;10.63;5.15;;;10.20;99.90;;;;;;5067830;28;20023;-86
2024/01/30 10:51:36;;;;;;;7.70;4.93;;;10.30;99.90;;;;;;5073379;28;20032;-88
2024/01/30 10:54:04;;;;;;;11.57;4.95;;;10.30;99.90;;;;;;5068569;28;20110;-88
2024/01/30 10:56:33;;;;;;;8.90;5.13;;;10.30;99.90;;;;;;5074727;28;20028;-82
2024/01/30 10:58:59;;;;;;;9.48;4.50;;;10.30;99.90;;;;;;5071508;28;20028;-83
2024/01/30 11:01:26;;;;;;;10.25;5.40;;;10.40;99.90;;;;;;5075647;28;20025;-83
2024/01/30 11:03:53;;;;;;;18.20;4.60;;;10.40;99.90;;;;;;5068377;28;20028;-84
2024/01/30 11:06:22;;;;;;;16.70;4.97;;;10.50;99.90;;;;;;5075063;28;20043;-83
2024/01/30 11:09:08;;;;;;;11.80;5.53;;;10.50;99.90;;;;;;5075386;28;20056;-83
2024/01/30 11:11:52;;;;;;;7.22;3.90;;;10.60;99.90;;;;;;5063790;28;20070;-83
2024/01/30 11:14:24;;;;;;;6.93;4.18;;;10.60;99.90;;;;;;5047378;28;20509;-83
2024/01/30 11:16:50;;;;;;;10.38;4.32;;;10.50;99.90;;;;;;5064768;28;20028;-84
2024/01/30 11:19:22;;;;;;;9.55;4.47;;;10.60;99.90;;;;;;5076000;28;20027;-84
2024/01/30 11:21:53;;;;;;;15.07;5.10;;;10.60;99.90;;;;;;5070942;28;20084;-84
2024/01/30 11:24:21;;;;;;;11.48;4.82;;;10.60;99.90;;;;;;5072700;28;20029;-83
2024/01/30 11:27:03;;;;;;;6.95;4.20;;;10.70;99.90;;;;;;5072389;28;20454;-84
2024/01/30 11:29:29;;;;;;;11.82;5.25;;;10.70;99.90;;;;;;5065839;28;20111;-84
2024/01/30 11:31:56;;;;;;;11.25;4.47;;;10.80;99.90;;;;;;5070114;28;20529;-85
2024/01/30 11:34:23;;;;;;;7.03;4.13;;;10.80;99.90;;;;;;5072096;28;20051;-83
2024/01/30 11:36:58;;;;;;;12.57;4.18;;;10.90;99.90;;;;;;5074433;28;20039;-86
2024/01/30 11:39:29;;;;;;;16.60;6.88;;;11.00;99.90;;;;;;5069423;28;20028;-84
2024/01/30 11:41:55;;;;;;;9.70;5.15;;;11.10;99.90;;;;;;5081017;28;20035;-84
2024/01/30 11:44:22;;;;;;;11.65;5.15;;;11.20;99.90;;;;;;5055323;28;20049;-85
2024/01/30 11:46:52;;;;;;;9.57;4.60;;;11.20;99.90;;;;;;5056935;28;20489;-83
2024/01/30 11:49:19;;;;;;;9.77;5.03;;;11.20;99.90;;;;;;5067451;28;20039;-83
2024/01/30 11:51:48;;;;;;;10.50;4.47;;;11.30;99.90;;;;;;5077643;28;20028;-82
2024/01/30 11:54:14;;;;;;;8.52;4.70;;;11.20;99.90;;;;;;5062724;28;20020;-83
2024/01/30 11:56:39;;;;;;;6.78;4.18;;;11.30;99.90;;;;;;5065436;28;20028;-85
2024/01/30 11:59:05;;;;;;;12.55;4.68;;;11.20;99.90;;;;;;5057971;28;20024;-85
2024/01/30 12:01:32;;;;;;;10.20;4.72;;;11.20;99.90;;;;;;5070992;28;20095;-84
2024/01/30 12:04:02;;;;;;;7.07;4.10;;;11.30;99.90;;;;;;5061118;28;20025;-84
2024/01/30 12:06:28;;;;;;;10.55;4.95;;;11.30;99.90;;;;;;5055265;28;20123;-84
2024/01/30 12:09:04;;;;;;;12.07;5.45;;;11.30;99.90;;;;;;5071576;28;20679;-85
2024/01/30 12:11:30;;;;;;;10.80;4.45;;;11.30;99.90;;;;;;5064200;28;20119;-83
2024/01/30 12:13:56;;;;;;;8.57;4.45;;;11.40;99.90;;;;;;5062932;28;20111;-85
2024/01/30 12:16:22;;;;;;;9.02;3.55;;;11.40;99.90;;;;;;5060044;28;20012;-83
2024/01/30 12:18:48;;;;;;;7.30;3.78;;;11.30;99.90;;;;;;5051458;28;20031;-88
2024/01/30 12:21:16;;;;;;;11.90;4.57;;;11.30;99.90;;;;;;5062773;28;20032;-83
2024/01/30 12:23:42;;;;;;;9.73;4.70;;;11.30;99.90;;;;;;5061875;28;20546;-84
2024/01/30 12:26:08;;;;;;;10.77;4.53;;;11.30;99.90;;;;;;5069393;28;20090;-85
2024/01/30 12:28:34;;;;;;;9.43;4.95;;;11.30;99.90;;;;;;5071611;28;20416;-83
2024/01/30 12:31:05;;;;;;;6.63;3.85;;;11.30;99.90;;;;;;5052724;28;20054;-83
2024/01/30 12:33:31;;;;;;;6.03;3.53;;;11.30;99.90;;;;;;5050758;28;20435;-83
2024/01/30 12:35:58;;;;;;;8.68;4.70;;;11.30;99.90;;;;;;5056103;28;20040;-85
2024/01/30 12:38:24;;;;;;;11.07;4.30;;;11.30;99.90;;;;;;5062123;28;20078;-86
2024/01/30 12:40:54;;;;;;;7.88;4.47;;;11.30;99.90;;;;;;5056160;28;20373;-85
2024/01/30 12:43:20;;;;;;;10.23;4.07;;;11.30;99.90;;;;;;5066132;28;20052;-83
2024/01/30 12:45:47;;;;;;;9.30;4.65;;;11.30;99.90;;;;;;5062779;28;20067;-84